Home > Products > Valid Products > MTR

000
SAUS43 KDLH 202257
MTRGNA
METAR KGNA 202256Z AUTO 20011KT 01/M02 A3013 RMK AO1 SLP216
T00111017





000
SAUS43 KDLH 202157
MTRGNA
METAR KGNA 202156Z AUTO 21008KT 01/M02 A3014 RMK AO1 SLP217
T00111017





000
SAUS43 KDLH 202057
MTRGNA
METAR KGNA 202056Z AUTO 20007KT 01/M02 A3013 RMK AO1 SLP214
T00061022 55007





000
SAUS43 KDLH 201957
MTRGNA
METAR KGNA 201956Z AUTO 19008KT 01/M02 A3013 RMK AO1 SLP214
T00061022





000
SAUS43 KDLH 201857
MTRGNA
METAR KGNA 201856Z AUTO 19008KT 01/M02 A3013 RMK AO1 SLP216
T00061017





000
SAUS43 KDLH 201757
MTRGNA
METAR KGNA 201756Z AUTO 20007KT 01/M02 A3015 RMK AO1 SLP223
T00061017 10006 20000 58007





000
SAUS43 KDLH 201657
MTRGNA
METAR KGNA 201656Z AUTO 20008KT 01/M02 A3017 RMK AO1 SLP228
T00061017





000
SAUS43 KDLH 201557
MTRGNA
METAR KGNA 201556Z AUTO 19008KT 01/M02 A3018 RMK AO1 SLP231
T00061022





000
SAUS43 KDLH 201457
MTRGNA
METAR KGNA 201456Z AUTO 21006KT 00/M03 A3017 RMK AO1 SLP230
T00001028 58002





000
SAUS43 KDLH 201357
MTRGNA
METAR KGNA 201356Z AUTO 22008KT 00/M03 A3018 RMK AO1 SLP232
T00001028





000
SAUS43 KDLH 201257
MTRGNA
METAR KGNA 201256Z AUTO 20008KT 00/M03 A3018 RMK AO1 SLP233
T00001028





000
SAUS43 KDLH 201157
MTRGNA
METAR KGNA 201156Z AUTO 20009KT 00/M03 A3018 RMK AO1 SLP232
T00001028 10000 21022 55000





000
SAUS43 KDLH 201057
MTRGNA
METAR KGNA 201056Z AUTO 20008KT 00/M03 A3018 RMK AO1 SLP231
T00001028





000
SAUS43 KDLH 200957
MTRGNA
METAR KGNA 200956Z AUTO 21007KT 00/M03 A3018 RMK AO1 SLP232
T00001033





000
SAUS43 KDLH 200857
MTRGNA
METAR KGNA 200856Z AUTO 18006KT 00/M03 A3018 RMK AO1 SLP233
T00001033 56003





000
SAUS43 KDLH 200757
MTRGNA
METAR KGNA 200756Z AUTO 18006KT M01/M04 A3018 RMK AO1 SLP233
T10061039





000
SAUS43 KDLH 200757
MTRGNA
METAR KGNA 200756Z AUTO 18006KT M01/M04 A3018 RMK AO1 SLP233
T10061039





000
SAUS43 KDLH 200657
MTRGNA
METAR KGNA 200656Z AUTO 19005KT M01/M04 A3019 RMK AO1 SLP234
T10061044





000
SAUS43 KDLH 200557
MTRGNA
METAR KGNA 200556Z AUTO 00000KT M02/M05 A3019 RMK AO1 SLP237
T10221050 11011 21022 410111067 58010





000
SAUS43 KDLH 200457
MTRGNA
METAR KGNA 200456Z AUTO 00000KT M02/M05 A3020 RMK AO1 SLP240
T10171050





000
SAUS43 KDLH 200357
MTRGNA
METAR KGNA 200356Z AUTO 00000KT M02/M06 A3021 RMK AO1 SLP244
T10171056





000
SAUS43 KDLH 200357
MTRGNA
METAR KGNA 200356Z AUTO 00000KT M02/M06 A3021 RMK AO1 SLP244
T10171056





000
SAUS43 KDLH 200257
MTRGNA
METAR KGNA 200256Z AUTO VRB05KT M02/M05 A3022 RMK AO1 SLP246
T10171050 58004





000
SAUS43 KDLH 200157
MTRGNA
METAR KGNA 200156Z AUTO 22008KT M02/M04 A3023 RMK AO1 SLP250
T10171044





000
SAUS43 KDLH 200157
MTRGNA
METAR KGNA 200156Z AUTO 22008KT M02/M04 A3023 RMK AO1 SLP250
T10171044





000
SAUS43 KDLH 200057
MTRGNA
METAR KGNA 200056Z AUTO 21009KT M02/M04 A3023 RMK AO1 SLP249
T10171044





000
SAUS43 KDLH 192357
MTRGNA
METAR KGNA 192356Z AUTO 18004KT M02/M04 A3023 RMK AO1 SLP249
T10171044 11011 21017 50000





000
SAUS43 KDLH 192257
MTRGNA
METAR KGNA 192256Z AUTO 16007KT M01/M05 A3024 RMK AO1 SLP254
T10111050





000
SAUS43 KDLH 192157
MTRGNA
METAR KGNA 192156Z AUTO 15007KT M02/M06 A3023 RMK AO1 SLP252
T10171056





000
SAUS43 KDLH 192057
MTRGNA
METAR KGNA 192056Z AUTO 15009KT M01/M06 A3023 RMK AO1 SLP250
T10111056 55006





000
SAUS43 KDLH 191957
MTRGNA
METAR KGNA 191956Z AUTO 18008KT M01/M05 A3023 RMK AO1 SLP249
T10111050





000
SAUS43 KDLH 191957
MTRGNA
METAR KGNA 191956Z AUTO 18008KT M01/M05 A3023 RMK AO1 SLP249
T10111050





000
SAUS43 KDLH 191857
MTRGNA
METAR KGNA 191856Z AUTO 16007KT M01/M05 A3024 RMK AO1 SLP254
T10111050





000
SAUS43 KDLH 191757
MTRGNA
METAR KGNA 191756Z AUTO 18009KT M01/M05 A3025 RMK AO1 SLP259
T10111050 11011 21017 58008





000
SAUS43 KDLH 191657
MTRGNA
METAR KGNA 191656Z AUTO 18010KT M01/M05 A3026 RMK AO1 SLP264
T10111050





000
SAUS43 KDLH 191557
MTRGNA
METAR KGNA 191556Z AUTO 18009KT M02/M05 A3028 RMK AO1 SLP270
T10171050





000
SAUS43 KDLH 191457
MTRGNA
METAR KGNA 191456Z AUTO 20010KT M01/M05 A3028 RMK AO1 SLP268
T10111050 53005





000
SAUS43 KDLH 191357
MTRGNA
METAR KGNA 191356Z AUTO 21009KT M02/M06 A3027 RMK AO1 SLP265
T10171056





000
SAUS43 KDLH 191257
MTRGNA
METAR KGNA 191256Z AUTO 21009KT M01/M06 A3026 RMK AO1 SLP264
T10111056





000
SAUS43 KDLH 191157
MTRGNA
METAR KGNA 191156Z AUTO 20008KT M01/M06 A3026 RMK AO1 SLP264
T10111061 11011 21067 55003





000
SAUS43 KDLH 191057
MTRGNA
METAR KGNA 191056Z AUTO 02004KT M03/M08 A3026 RMK AO1 SLP264
T10331078





000
SAUS43 KDLH 190957
MTRGNA
METAR KGNA 190956Z AUTO 04004KT M03/M08 A3026 RMK AO1 SLP263
T10331083





000
SAUS43 KDLH 190957
MTRGNA
METAR KGNA 190956Z AUTO 04004KT M03/M08 A3026 RMK AO1 SLP263
T10331083





000
SAUS43 KDLH 190857
MTRGNA
METAR KGNA 190856Z AUTO 04005KT M04/M09 A3027 RMK AO1 SLP265
T10391089 56004





000
SAUS43 KDLH 190757
MTRGNA
METAR KGNA 190756Z AUTO 05005KT M04/M09 A3028 RMK AO1 SLP267
T10391089





000
SAUS43 KDLH 190657
MTRGNA
METAR KGNA 190656Z AUTO 01003KT M06/M09 A3028 RMK AO1 SLP268
T10561094





000
SAUS43 KDLH 190557
MTRGNA
METAR KGNA 190556Z AUTO 35004KT M07/M10 A3028 RMK AO1 SLP272
T10671100 11067 21094 410281133 58003





000
SAUS43 KDLH 190457
MTRGNA
METAR KGNA 190456Z AUTO 35005KT M07/M11 A3029 RMK AO1 SLP273
T10721106





000
SAUS43 KDLH 190357
MTRGNA
METAR KGNA 190356Z AUTO 33005KT M07/M11 A3029 RMK AO1 SLP275
T10721106





000
SAUS43 KDLH 190357
MTRGNA
METAR KGNA 190356Z AUTO 33005KT M07/M11 A3029 RMK AO1 SLP275
T10721106





000
SAUS43 KDLH 190257
MTRGNA
METAR KGNA 190256Z AUTO 34007KT M08/M11 A3029 RMK AO1 SLP277
T10781111 50000





000
SAUS43 KDLH 190157
MTRGNA
METAR KGNA 190156Z AUTO 33006KT M08/M11 A3030 RMK AO1 SLP281
T10781111





000
SAUS43 KDLH 190157
MTRGNA
METAR KGNA 190156Z AUTO 33006KT M08/M11 A3030 RMK AO1 SLP281
T10781111





000
SAUS43 KDLH 190057
MTRGNA
METAR KGNA 190056Z AUTO 33005KT M08/M11 A3030 RMK AO1 SLP279
T10831111





000
SAUS43 KDLH 182357
MTRGNA
METAR KGNA 182356Z AUTO 33005KT M09/M12 A3029 RMK AO1 SLP280
T10941122 11028 21094 58002





000
SAUS43 KDLH 182257
MTRGNA
METAR KGNA 182256Z AUTO 34004KT M08/M11 A3030 RMK AO1 SLP281
T10781106





000
SAUS43 KDLH 182157
MTRGNA
METAR KGNA 182156Z AUTO 00000KT M05/M10 A3030 RMK AO1 SLP280
T10501100





000
SAUS43 KDLH 182057
MTRGNA
METAR KGNA 182056Z AUTO 00000KT M03/M11 A3030 RMK AO1 SLP278
T10281106 56011





000
SAUS43 KDLH 181957
MTRGNA
METAR KGNA 181956Z AUTO 21003KT M03/M09 A3030 RMK AO1 SLP279
T10331089





000
SAUS43 KDLH 181857
MTRGNA
METAR KGNA 181856Z AUTO 00000KT M04/M09 A3031 RMK AO1 SLP280
T10391089





000
SAUS43 KDLH 181757
MTRGNA
METAR KGNA 181756Z AUTO 00000KT M04/M09 A3033 RMK AO1 SLP289
T10391094 11039 21133 58006





000
SAUS43 KDLH 181657
MTRGNA
METAR KGNA 181656Z AUTO 10003KT M04/M10 A3035 RMK AO1 SLP293
T10441100





000
SAUS43 KDLH 181557
MTRGNA
METAR KGNA 181556Z AUTO 00000KT M05/M11 A3036 RMK AO1 SLP298
T10501111





000
SAUS43 KDLH 181457
MTRGNA
METAR KGNA 181456Z AUTO 35005KT M08/M14 A3035 RMK AO1 SLP297
T10831144 58001





000
SAUS43 KDLH 181357
MTRGNA
METAR KGNA 181356Z AUTO 34006KT M13/M17 A3036 RMK AO1 SLP303
T11281172





000
SAUS43 KDLH 181357
MTRGNA
METAR KGNA 181356Z AUTO 34006KT M13/M17 A3036 RMK AO1 SLP303
T11281172





000
SAUS43 KDLH 181257
MTRGNA
METAR KGNA 181256Z AUTO 34006KT M12/M17 A3037 RMK AO1 SLP305
T11221172





000
SAUS43 KDLH 181257
MTRGNA
METAR KGNA 181256Z AUTO 34006KT M12/M17 A3037 RMK AO1 SLP305
T11221172





000
SAUS43 KDLH 181157
MTRGNA
METAR KGNA 181156Z AUTO 34006KT M12/M18 A3035 RMK AO1 SLP299
T11171183 11089 21133 55007





000
SAUS43 KDLH 181157
MTRGNA
METAR KGNA 181156Z AUTO 34006KT M12/M18 A3035 RMK AO1 SLP299
T11171183 11089 21133 55007





000
SAUS43 KDLH 181057
MTRGNA
METAR KGNA 181056Z AUTO 34006KT M12/M19 A3035 RMK AO1 SLP298
T11171189





000
SAUS43 KDLH 181057
MTRGNA
METAR KGNA 181056Z AUTO 34006KT M12/M19 A3035 RMK AO1 SLP298
T11171189





000
SAUS43 KDLH 180957
MTRGNA
METAR KGNA 180956Z AUTO 34006KT M12/M19 A3037 RMK AO1 SLP303
T11171189





000
SAUS43 KDLH 180857
MTRGNA
METAR KGNA 180856Z AUTO 34005KT M13/M17 A3037 RMK AO1 SLP306
T11331172 53012





000
SAUS43 KDLH 180857
MTRGNA
METAR KGNA 180856Z AUTO 34005KT M13/M17 A3037 RMK AO1 SLP306
T11331172 53012





000
SAUS43 KDLH 180757
MTRGNA
METAR KGNA 180756Z AUTO 34005KT M13/M17 A3035 RMK AO1 SLP299
T11281167





000
SAUS43 KDLH 180757
MTRGNA
METAR KGNA 180756Z AUTO 34005KT M13/M17 A3035 RMK AO1 SLP299
T11281167





000
SAUS43 KDLH 180657
MTRGNA
METAR KGNA 180656Z AUTO 00000KT M10/M16 A3034 RMK AO1 SLP293
T11001161





000
SAUS43 KDLH 180557
MTRGNA
METAR KGNA 180556Z AUTO 35003KT M09/M14 A3034 RMK AO1 SLP292
T10941144 11072 21094 410441094 53001





000
SAUS43 KDLH 180457
MTRGNA
METAR KGNA 180456Z AUTO 02007KT M07/M14 A3033 RMK AO1 SLP289
T10721144





000
SAUS43 KDLH 180357
MTRGNA
METAR KGNA 180356Z AUTO 01004KT M08/M14 A3033 RMK AO1 SLP290
T10831144





000
SAUS43 KDLH 180257
MTRGNA
METAR KGNA 180256Z AUTO 02005KT M08/M15 A3034 RMK AO1 SLP291
T10831150 51002





000
SAUS43 KDLH 180157
MTRGNA
METAR KGNA 180156Z AUTO 01006KT M08/M14 A3033 RMK AO1 SLP290
T10831144





000
SAUS43 KDLH 180157
MTRGNA
METAR KGNA 180156Z AUTO 01006KT M08/M14 A3033 RMK AO1 SLP290
T10831144





000
SAUS43 KDLH 180057
MTRGNA
METAR KGNA 180056Z AUTO 00000KT M08/M14 A3034 RMK AO1 SLP293
T10831139





000
SAUS43 KDLH 172357
MTRGNA
METAR KGNA 172356Z AUTO 00000KT M08/M13 A3033 RMK AO1 SLP290
T10831133 11044 21083 53020





    US Dept of Commerce
    National Oceanic and Atmospheric Administration
    National Weather Service
    1325 East West Highway
    Silver Spring, MD 20910
    Page Author: NWS Internet Services Team
Disclaimer
Information Quality
Credits
Glossary
Privacy Policy
Freedom of Information Act (FOIA)
About Us
Career Opportunities